Time;durP1;ratioP1;P1;durP2;ratioP2;P2;SDS_P1;SDS_P2;PMS_P1;PMS_P2;Temp;Humidity;BMP_temperature;BMP_pressure;BME280_temperature;BME280_humidity;BME280_pressure;Samples;Min_cycle;Max_cycle;Signal;HPM_P1;HPM_P2
2021/01/30 00:00:45;;;;;;;13.52;10.95;;;22.10;99.90;;;;;;6098460;23;20037;-25
2021/01/30 00:03:13;;;;;;;12.85;10.23;;;22.10;99.90;;;;;;6098591;23;20402;-24
2021/01/30 00:05:39;;;;;;;11.85;10.65;;;22.10;99.90;;;;;;6098510;23;20010;-25
2021/01/30 00:08:07;;;;;;;10.73;9.63;;;22.10;99.90;;;;;;6098531;23;20014;-24
2021/01/30 00:10:33;;;;;;;14.50;9.75;;;22.10;99.90;;;;;;6098865;23;20361;-24
2021/01/30 00:12:58;;;;;;;12.27;9.90;;;22.10;99.90;;;;;;6098315;23;20097;-24
2021/01/30 00:15:27;;;;;;;10.88;9.55;;;22.00;99.90;;;;;;6098387;23;20006;-25
2021/01/30 00:17:56;;;;;;;11.40;10.05;;;22.10;99.90;;;;;;6098760;23;20003;-24
2021/01/30 00:20:28;;;;;;;9.55;8.13;;;22.00;99.90;;;;;;6098755;23;20085;-25
2021/01/30 00:22:55;;;;;;;9.40;8.38;;;22.00;99.90;;;;;;6098482;23;20011;-25
2021/01/30 00:25:27;;;;;;;9.30;8.20;;;22.00;99.90;;;;;;6098621;23;20102;-25
2021/01/30 00:27:54;;;;;;;9.27;7.32;;;22.00;99.90;;;;;;6098595;23;20299;-25
2021/01/30 00:30:22;;;;;;;9.70;8.13;;;21.90;99.90;;;;;;6098635;23;20003;-25
2021/01/30 00:32:50;;;;;;;8.95;7.13;;;22.00;99.90;;;;;;6098439;23;20002;-25
2021/01/30 00:35:17;;;;;;;7.22;6.53;;;22.00;99.90;;;;;;6098351;23;20002;-25
2021/01/30 00:37:43;;;;;;;10.05;6.88;;;21.90;99.90;;;;;;6098941;23;20003;-25
2021/01/30 00:40:09;;;;;;;7.30;6.60;;;21.90;99.90;;;;;;6098481;23;20030;-25
2021/01/30 00:42:35;;;;;;;7.35;6.63;;;21.90;99.90;;;;;;6098554;23;20010;-24
2021/01/30 00:45:03;;;;;;;7.05;6.35;;;21.90;99.90;;;;;;6098662;23;20010;-25
2021/01/30 00:47:28;;;;;;;6.55;5.85;;;21.90;99.90;;;;;;6098392;23;20394;-25
2021/01/30 00:49:54;;;;;;;6.75;6.05;;;21.90;99.90;;;;;;6098452;23;20009;-25
2021/01/30 00:52:24;;;;;;;6.90;5.70;;;21.90;99.90;;;;;;6098755;23;20022;-25
2021/01/30 00:54:50;;;;;;;7.70;6.43;;;21.90;99.90;;;;;;6098378;23;20002;-25
2021/01/30 00:57:16;;;;;;;5.95;5.32;;;21.80;99.90;;;;;;6072217;23;20003;-30
2021/01/30 00:59:42;;;;;;;6.05;5.28;;;21.80;99.90;;;;;;6097412;23;20053;-30
2021/01/30 01:02:08;;;;;;;6.13;5.53;;;21.80;99.90;;;;;;6097178;23;20002;-29
2021/01/30 01:04:33;;;;;;;6.05;5.25;;;21.80;99.90;;;;;;6097388;23;20267;-29
2021/01/30 01:06:59;;;;;;;6.18;5.38;;;21.80;99.90;;;;;;6097312;23;20007;-30
2021/01/30 01:09:25;;;;;;;5.70;5.10;;;21.80;99.90;;;;;;6097439;23;20062;-30
2021/01/30 01:11:51;;;;;;;5.95;4.95;;;21.80;99.90;;;;;;6097266;23;20021;-30
2021/01/30 01:14:20;;;;;;;6.47;5.53;;;21.80;99.90;;;;;;6097294;23;20003;-30
2021/01/30 01:16:46;;;;;;;5.25;4.75;;;21.70;99.90;;;;;;6097271;23;20406;-29
2021/01/30 01:19:12;;;;;;;5.72;4.05;;;21.70;99.90;;;;;;6097406;23;20339;-29
2021/01/30 01:21:38;;;;;;;5.25;4.57;;;21.70;99.90;;;;;;6072049;23;20547;-30
2021/01/30 01:24:05;;;;;;;4.78;4.22;;;21.70;99.90;;;;;;6097364;23;20034;-30
2021/01/30 01:26:31;;;;;;;4.28;3.85;;;21.70;99.90;;;;;;6071974;23;20026;-30
2021/01/30 01:28:56;;;;;;;6.07;3.92;;;21.70;99.90;;;;;;6097054;23;20325;-30
2021/01/30 01:31:23;;;;;;;4.80;4.15;;;21.70;99.90;;;;;;6096580;23;20082;-29
2021/01/30 01:33:49;;;;;;;4.07;3.63;;;21.70;99.90;;;;;;6097674;23;20081;-30
2021/01/30 01:36:19;;;;;;;4.93;4.07;;;21.70;99.90;;;;;;6096988;23;20748;-30
2021/01/30 01:38:45;;;;;;;4.85;3.83;;;21.70;99.90;;;;;;6097088;23;20042;-29
2021/01/30 01:41:11;;;;;;;5.32;4.00;;;21.70;99.90;;;;;;6097209;23;20006;-30
2021/01/30 01:43:38;;;;;;;5.23;4.17;;;21.70;99.90;;;;;;6096765;23;20461;-30
2021/01/30 01:46:12;;;;;;;4.45;3.60;;;21.70;99.90;;;;;;6097101;23;20422;-29
2021/01/30 01:48:43;;;;;;;4.65;3.60;;;21.60;99.90;;;;;;6096700;23;20002;-30
2021/01/30 01:51:16;;;;;;;5.13;3.42;;;21.60;99.90;;;;;;6096912;23;20077;-29
2021/01/30 01:53:44;;;;;;;6.75;4.30;;;21.60;99.90;;;;;;6096757;23;20011;-29
2021/01/30 01:56:16;;;;;;;;;;;21.60;99.90;;;;;;6097311;23;20009;-28
2021/01/30 01:58:47;;;;;;;4.88;3.70;;;21.70;99.90;;;;;;6096803;23;19952;-28
2021/01/30 02:01:13;;;;;;;4.50;3.40;;;21.60;99.90;;;;;;6071293;23;20025;-28
2021/01/30 02:03:43;;;;;;;5.30;4.65;;;21.60;99.90;;;;;;6096518;23;20049;-28
2021/01/30 02:06:09;;;;;;;3.50;3.20;;;21.60;99.90;;;;;;6097127;23;20369;-28
2021/01/30 02:08:35;;;;;;;3.97;3.28;;;21.60;99.90;;;;;;6096203;23;20010;-28
2021/01/30 02:11:01;;;;;;;4.85;3.67;;;21.60;99.90;;;;;;6096667;23;20105;-28
2021/01/30 02:13:51;;;;;;;4.22;3.55;;;21.60;99.90;;;;;;6096680;23;20497;-28
2021/01/30 02:16:41;;;;;;;4.07;3.63;;;21.60;99.90;;;;;;6096678;23;20005;-28
2021/01/30 02:19:28;;;;;;;4.28;3.63;;;21.60;99.90;;;;;;6096493;23;20146;-28
2021/01/30 02:22:19;;;;;;;4.15;3.25;;;21.60;99.90;;;;;;6097047;23;20591;-28
2021/01/30 02:25:26;;;;;;;3.88;3.47;;;21.60;99.90;;;;;;6096443;23;20070;-28
2021/01/30 02:27:59;;;;;;;;;;;21.50;99.90;;;;;;6097046;23;20003;-28
2021/01/30 02:30:36;;;;;;;5.03;3.67;;;21.60;99.90;;;;;;6096327;23;19905;-28
2021/01/30 02:33:24;;;;;;;5.10;3.63;;;21.50;99.90;;;;;;6096767;23;20013;-28
2021/01/30 02:35:56;;;;;;;5.63;3.60;;;21.50;99.90;;;;;;6096494;23;20042;-28
2021/01/30 02:38:27;;;;;;;4.40;3.75;;;21.50;99.90;;;;;;6096581;23;20061;-28
2021/01/30 02:40:59;;;;;;;4.60;3.90;;;21.50;99.90;;;;;;6096401;23;20010;-28
2021/01/30 02:43:31;;;;;;;4.93;3.40;;;21.50;99.90;;;;;;6096633;23;20045;-28
2021/01/30 02:46:03;;;;;;;4.90;3.67;;;21.40;99.90;;;;;;6096201;23;20003;-28
2021/01/30 02:48:43;;;;;;;4.75;3.50;;;21.50;99.90;;;;;;6096213;23;20414;-28
2021/01/30 02:51:17;;;;;;;5.10;3.85;;;21.40;99.90;;;;;;6096563;23;20003;-28
2021/01/30 02:53:55;;;;;;;4.90;3.83;;;21.40;99.90;;;;;;6096909;23;19999;-24
2021/01/30 02:56:22;;;;;;;4.10;3.70;;;21.50;99.90;;;;;;6097199;23;19998;-23
2021/01/30 02:59:16;;;;;;;4.53;3.40;;;21.40;99.90;;;;;;6096734;23;20013;-23
2021/01/30 03:01:42;;;;;;;4.25;3.60;;;21.40;99.90;;;;;;6096999;23;20081;-23
2021/01/30 03:04:20;;;;;;;5.18;3.60;;;21.40;99.90;;;;;;6097287;23;20033;-23
2021/01/30 03:07:00;;;;;;;5.35;4.22;;;21.50;99.90;;;;;;6097225;23;20189;-23
2021/01/30 03:09:45;;;;;;;4.43;3.63;;;21.40;99.90;;;;;;6097085;23;20135;-24
2021/01/30 03:12:36;;;;;;;5.22;4.00;;;21.40;99.90;;;;;;6097001;23;20018;-23
2021/01/30 03:15:18;;;;;;;4.97;3.95;;;21.40;99.90;;;;;;6076541;23;20002;-24
2021/01/30 03:17:47;;;;;;;4.45;3.80;;;21.40;99.90;;;;;;6096471;23;20037;-23
2021/01/30 03:20:14;;;;;;;5.03;3.75;;;21.40;99.90;;;;;;6096190;23;20006;-23
2021/01/30 03:22:42;;;;;;;4.78;3.63;;;21.40;99.90;;;;;;6096585;23;20025;-23
2021/01/30 03:25:08;;;;;;;;;;;21.40;99.90;;;;;;6097468;23;20058;-23
2021/01/30 03:27:35;;;;;;;4.05;3.60;;;21.40;99.90;;;;;;6096608;23;19912;-23
2021/01/30 03:30:05;;;;;;;4.47;3.90;;;21.40;99.90;;;;;;6096970;23;20485;-23
2021/01/30 03:32:31;;;;;;;5.30;3.95;;;21.40;99.90;;;;;;6096616;23;20367;-23
2021/01/30 03:34:58;;;;;;;5.25;3.80;;;21.40;99.90;;;;;;6096861;23;19998;-23
2021/01/30 03:37:24;;;;;;;5.68;4.05;;;21.40;99.90;;;;;;6097387;23;20431;-23
2021/01/30 03:39:50;;;;;;;5.43;3.92;;;21.40;99.90;;;;;;6071236;23;20038;-23
2021/01/30 03:42:16;;;;;;;5.18;4.07;;;21.40;99.90;;;;;;6096696;23;20329;-23
2021/01/30 03:44:42;;;;;;;4.25;3.70;;;21.40;99.90;;;;;;6096820;23;20006;-23
2021/01/30 03:47:08;;;;;;;5.70;3.85;;;21.40;99.90;;;;;;6096751;23;20013;-23
2021/01/30 03:49:34;;;;;;;4.97;3.75;;;21.40;99.90;;;;;;6097238;23;20025;-23
2021/01/30 03:52:00;;;;;;;4.72;4.03;;;21.40;99.90;;;;;;6096908;23;20003;-23
2021/01/30 03:54:26;;;;;;;4.30;3.83;;;21.40;99.90;;;;;;6096586;23;20009;-23
2021/01/30 03:56:52;;;;;;;5.15;3.60;;;21.40;99.90;;;;;;6071606;23;20006;-23
2021/01/30 03:59:19;;;;;;;4.80;3.65;;;21.40;99.90;;;;;;6097018;23;20307;-23
2021/01/30 04:01:46;;;;;;;8.23;3.95;;;21.40;99.90;;;;;;6097188;23;20002;-23
2021/01/30 04:04:12;;;;;;;5.78;4.25;;;21.40;99.90;;;;;;6096802;23;20010;-23
2021/01/30 04:06:39;;;;;;;5.32;3.97;;;21.30;99.90;;;;;;6097038;23;20002;-23
2021/01/30 04:09:06;;;;;;;5.22;3.58;;;21.40;99.90;;;;;;6097182;23;20018;-23
2021/01/30 04:11:33;;;;;;;4.97;3.67;;;21.30;99.90;;;;;;6096400;23;20022;-23
2021/01/30 04:14:00;;;;;;;5.32;3.53;;;21.30;99.90;;;;;;6097061;23;20022;-23
2021/01/30 04:16:26;;;;;;;5.70;4.30;;;21.30;99.90;;;;;;6097054;23;20002;-23
2021/01/30 04:18:53;;;;;;;4.83;3.60;;;21.30;99.90;;;;;;6096904;23;20073;-23
2021/01/30 04:21:19;;;;;;;4.72;4.22;;;21.30;99.90;;;;;;6097174;23;20061;-23
2021/01/30 04:23:47;;;;;;;4.60;3.60;;;21.30;99.90;;;;;;6096891;23;20046;-23
2021/01/30 04:26:13;;;;;;;4.88;3.95;;;21.30;99.90;;;;;;6097068;23;20009;-23
2021/01/30 04:28:40;;;;;;;5.50;4.22;;;21.30;99.90;;;;;;6071167;23;20006;-24
2021/01/30 04:31:07;;;;;;;5.72;3.90;;;21.30;99.90;;;;;;6096853;23;20469;-23
2021/01/30 04:33:33;;;;;;;6.78;4.53;;;21.30;99.90;;;;;;6096956;23;20005;-23
2021/01/30 04:35:59;;;;;;;5.40;4.43;;;21.20;99.90;;;;;;6098168;23;20073;-23
2021/01/30 04:38:25;;;;;;;6.30;4.50;;;21.30;99.90;;;;;;6098635;23;20038;-23
2021/01/30 04:40:59;;;;;;;7.57;3.78;;;21.20;99.90;;;;;;6098663;23;20002;-23
2021/01/30 04:43:36;;;;;;;6.15;4.80;;;21.20;99.90;;;;;;6099034;23;20033;-23
2021/01/30 04:46:25;;;;;;;6.63;4.60;;;21.20;99.90;;;;;;6098501;23;20061;-23
2021/01/30 04:49:00;;;;;;;6.20;4.45;;;21.20;99.90;;;;;;6082796;23;20007;-23
2021/01/30 04:51:50;;;;;;;6.45;4.43;;;21.20;99.90;;;;;;6098498;23;20069;-26
2021/01/30 04:54:39;;;;;;;6.55;4.90;;;21.20;99.90;;;;;;6098365;23;20060;-23
2021/01/30 04:57:19;;;;;;;9.30;4.82;;;21.20;99.90;;;;;;6097908;23;20024;-23
2021/01/30 05:00:08;;;;;;;7.53;5.00;;;21.20;99.90;;;;;;6096661;23;20085;-23
2021/01/30 05:02:34;;;;;;;7.38;5.15;;;21.20;99.90;;;;;;6096934;23;20010;-23
2021/01/30 05:05:01;;;;;;;6.63;4.57;;;21.20;99.90;;;;;;6096974;23;19994;-25
2021/01/30 05:07:30;;;;;;;7.47;4.60;;;21.20;99.90;;;;;;6097443;23;20009;-23
2021/01/30 05:09:59;;;;;;;6.82;4.72;;;21.10;99.90;;;;;;6098470;23;20003;-23
2021/01/30 05:12:37;;;;;;;9.98;4.72;;;21.10;99.90;;;;;;6097591;23;20025;-24
2021/01/30 05:15:19;;;;;;;7.38;4.97;;;21.10;99.90;;;;;;6097981;23;20078;-23
2021/01/30 05:18:18;;;;;;;7.63;4.82;;;21.10;99.90;;;;;;6098192;23;20033;-23
2021/01/30 05:20:51;;;;;;;6.28;4.00;;;21.10;99.90;;;;;;6067023;23;20362;-23
2021/01/30 05:23:17;;;;;;;6.32;4.28;;;21.10;99.90;;;;;;6098204;23;20342;-23
2021/01/30 05:25:45;;;;;;;5.43;4.13;;;21.10;99.90;;;;;;6098523;23;20330;-23
2021/01/30 05:28:26;;;;;;;5.25;4.45;;;21.10;99.90;;;;;;6098207;23;20006;-23
2021/01/30 05:31:10;;;;;;;8.90;4.47;;;21.10;99.90;;;;;;6097974;23;20026;-23
2021/01/30 05:34:01;;;;;;;4.28;3.63;;;21.00;99.90;;;;;;6097471;23;20321;-23
2021/01/30 05:37:01;;;;;;;6.05;4.60;;;21.10;99.90;;;;;;6098177;23;20330;-23
2021/01/30 05:39:41;;;;;;;5.50;3.92;;;21.00;99.90;;;;;;6097809;23;20073;-23
2021/01/30 05:42:37;;;;;;;6.25;3.95;;;21.10;99.90;;;;;;6097652;23;20006;-23
2021/01/30 05:45:09;;;;;;;6.38;4.40;;;21.10;99.90;;;;;;6097189;23;20086;-23
2021/01/30 05:47:37;;;;;;;4.68;3.90;;;21.10;99.90;;;;;;6097694;23;20082;-23
2021/01/30 05:50:02;;;;;;;;;;;21.00;99.90;;;;;;6096442;23;20422;-23
2021/01/30 05:52:34;;;;;;;5.45;4.25;;;21.10;99.90;;;;;;6095684;23;19908;-23
2021/01/30 05:55:00;;;;;;;5.50;4.22;;;21.10;99.90;;;;;;6096879;23;20426;-23
2021/01/30 05:57:26;;;;;;;6.03;4.45;;;21.00;99.90;;;;;;6096765;23;20130;-23
2021/01/30 05:59:58;;;;;;;5.07;3.88;;;21.00;99.90;;;;;;6097147;23;20407;-23
2021/01/30 06:02:30;;;;;;;9.00;3.90;;;21.00;99.90;;;;;;6097073;23;20058;-23
2021/01/30 06:04:57;;;;;;;5.13;3.90;;;21.00;99.90;;;;;;6097345;23;20034;-23
2021/01/30 06:07:34;;;;;;;4.38;3.70;;;21.00;99.90;;;;;;6097514;23;20006;-23
2021/01/30 06:10:23;;;;;;;4.60;3.58;;;21.00;99.90;;;;;;6097922;23;20005;-23
2021/01/30 06:13:14;;;;;;;3.45;3.03;;;21.00;99.90;;;;;;6097510;23;20034;-23
2021/01/30 06:15:43;;;;;;;6.15;3.63;;;21.00;99.90;;;;;;6097320;23;19998;-23
2021/01/30 06:18:16;;;;;;;7.50;3.22;;;21.00;99.90;;;;;;6097628;23;20006;-23
2021/01/30 06:20:58;;;;;;;4.60;3.70;;;21.00;99.90;;;;;;6097569;23;20010;-23
2021/01/30 06:23:24;;;;;;;4.18;3.60;;;21.00;99.90;;;;;;6097745;23;20002;-23
2021/01/30 06:25:49;;;;;;;4.95;3.47;;;21.00;99.90;;;;;;6097783;23;20006;-23
2021/01/30 06:28:25;;;;;;;4.63;3.30;;;21.00;99.90;;;;;;6097539;23;20393;-23
2021/01/30 06:30:54;;;;;;;6.75;3.58;;;21.00;99.90;;;;;;6072395;23;20010;-24
2021/01/30 06:33:31;;;;;;;5.47;3.13;;;20.90;99.90;;;;;;6097467;23;20006;-23
2021/01/30 06:36:10;;;;;;;5.10;3.05;;;20.90;99.90;;;;;;6097665;23;20057;-23
2021/01/30 06:38:43;;;;;;;3.55;3.03;;;21.00;99.90;;;;;;6097421;23;20003;-23
2021/01/30 06:41:36;;;;;;;4.18;3.38;;;21.00;99.90;;;;;;6097042;23;20037;-23
2021/01/30 06:44:07;;;;;;;5.47;3.33;;;21.00;99.90;;;;;;6091968;23;20066;-23
2021/01/30 06:46:33;;;;;;;7.10;3.60;;;21.00;99.90;;;;;;6097163;23;20010;-23
2021/01/30 06:49:16;;;;;;;4.55;3.70;;;21.00;99.90;;;;;;6097018;23;20444;-23
2021/01/30 06:51:44;;;;;;;5.68;4.25;;;20.90;99.90;;;;;;6097287;23;20114;-23
2021/01/30 06:54:23;;;;;;;7.85;4.80;;;21.00;99.90;;;;;;6097174;23;20408;-26
2021/01/30 06:57:22;;;;;;;5.97;5.22;;;21.00;99.90;;;;;;6096593;23;20083;-24
2021/01/30 06:59:58;;;;;;;7.55;5.95;;;21.00;99.90;;;;;;6086703;23;20422;-23
2021/01/30 07:02:51;;;;;;;8.02;6.35;;;21.00;99.90;;;;;;6097597;23;20321;-24
2021/01/30 07:05:41;;;;;;;6.78;5.60;;;21.00;99.90;;;;;;6041265;23;20021;-23
2021/01/30 07:08:36;;;;;;;8.57;6.75;;;21.00;99.90;;;;;;6095781;23;20021;-23
2021/01/30 07:11:47;;;;;;;11.65;8.57;;;20.90;99.90;;;;;;6047708;23;20002;-23
2021/01/30 07:14:27;;;;;;;13.70;11.45;;;20.90;99.90;;;;;;6096784;23;20010;-23
2021/01/30 07:17:49;;;;;;;16.98;12.35;;;20.90;99.90;;;;;;6096465;23;20445;-23
2021/01/30 07:20:23;;;;;;;11.68;10.48;;;20.90;99.90;;;;;;6033150;23;20244;-23
2021/01/30 07:23:13;;;;;;;14.45;10.77;;;20.90;99.90;;;;;;6096884;23;19999;-23
2021/01/30 07:26:03;;;;;;;13.65;9.13;;;20.90;99.90;;;;;;6096661;23;20018;-26
2021/01/30 07:28:55;;;;;;;12.27;9.30;;;20.90;99.90;;;;;;6096377;23;20077;-23
2021/01/30 07:31:38;;;;;;;8.52;7.63;;;20.90;99.90;;;;;;6081100;23;20002;-24
2021/01/30 07:34:22;;;;;;;8.98;7.72;;;20.90;99.90;;;;;;6096639;23;20002;-24
2021/01/30 07:36:52;;;;;;;7.68;6.78;;;20.90;99.90;;;;;;6096005;23;20002;-24
2021/01/30 07:39:41;;;;;;;8.13;6.60;;;20.90;99.90;;;;;;6096584;23;20006;-24
2021/01/30 07:42:41;;;;;;;11.15;8.23;;;20.90;99.90;;;;;;6081767;23;20006;-24
2021/01/30 07:45:29;;;;;;;293.02;228.02;;;21.00;99.90;;;;;;6096568;23;20006;-24
2021/01/30 07:48:12;;;;;;;51.25;42.60;;;21.00;99.90;;;;;;6096647;23;20311;-24
2021/01/30 07:50:42;;;;;;;26.10;21.02;;;21.10;99.90;;;;;;6096145;23;20054;-24
2021/01/30 07:53:26;;;;;;;15.02;12.32;;;21.00;99.90;;;;;;6096327;23;20372;-24
2021/01/30 07:56:04;;;;;;;8.00;7.20;;;21.00;99.90;;;;;;6070995;23;20006;-24
2021/01/30 07:58:53;;;;;;;5.95;4.05;;;21.10;99.90;;;;;;6096795;23;20010;-24
2021/01/30 08:01:22;;;;;;;3.47;2.22;;;21.10;99.90;;;;;;6081225;23;20014;-24
2021/01/30 08:03:59;;;;;;;2.60;1.70;;;21.10;99.90;;;;;;6097224;23;20029;-29
2021/01/30 08:07:14;;;;;;;227.63;194.18;;;21.00;99.90;;;;;;6096595;23;20148;-24
2021/01/30 08:10:00;;;;;;;45.40;36.40;;;20.90;99.90;;;;;;6053292;23;20015;-24
2021/01/30 08:12:47;;;;;;;29.77;24.65;;;20.90;99.90;;;;;;6098406;23;20081;-24
2021/01/30 08:15:34;;;;;;;26.70;15.50;;;21.00;99.90;;;;;;6098450;23;20041;-24
2021/01/30 08:18:03;;;;;;;13.40;9.73;;;21.00;99.90;;;;;;6097187;23;20029;-24
2021/01/30 08:20:44;;;;;;;10.18;7.10;;;21.10;99.90;;;;;;6097824;23;19994;-24
2021/01/30 08:23:37;;;;;;;3.88;3.03;;;21.10;99.90;;;;;;6098508;23;20002;-24
2021/01/30 08:26:17;;;;;;;4.82;2.58;;;21.10;99.90;;;;;;6098963;23;19999;-24
2021/01/30 08:29:11;;;;;;;2.88;1.98;;;21.10;99.90;;;;;;6098385;23;20037;-24
2021/01/30 08:31:45;;;;;;;153.05;125.20;;;21.10;99.90;;;;;;6097995;23;20010;-24
2021/01/30 08:34:20;;;;;;;23.45;17.58;;;21.10;99.90;;;;;;6097814;23;19998;-30
2021/01/30 08:36:51;;;;;;;11.23;4.20;;;21.20;99.90;;;;;;6097422;23;20069;-30
2021/01/30 08:39:23;;;;;;;7.43;3.20;;;21.10;99.90;;;;;;6097082;23;20006;-24
2021/01/30 08:41:52;;;;;;;1.33;0.73;;;21.10;99.90;;;;;;6072422;23;20379;-24
2021/01/30 08:44:47;;;;;;;1.33;0.55;;;21.00;99.90;;;;;;6098235;23;20006;-24
2021/01/30 08:47:19;;;;;;;0.98;0.95;;;21.00;99.90;;;;;;6097342;23;20007;-24
2021/01/30 08:50:32;;;;;;;1.55;1.38;;;21.00;99.90;;;;;;6097488;23;20429;-29
2021/01/30 08:53:21;;;;;;;0.70;0.40;;;21.10;99.90;;;;;;6096701;23;20374;-24
2021/01/30 08:55:53;;;;;;;1.60;0.40;;;21.10;99.90;;;;;;6097530;23;20003;-24
2021/01/30 08:58:35;;;;;;;3.92;0.68;;;21.00;99.90;;;;;;6071511;23;20383;-24
2021/01/30 09:01:22;;;;;;;4.13;0.52;;;21.00;99.90;;;;;;6097599;23;20010;-24
2021/01/30 09:03:48;;;;;;;2.05;1.08;;;21.10;99.90;;;;;;6097556;23;20016;-24
2021/01/30 09:06:38;;;;;;;3.17;0.70;;;21.00;99.90;;;;;;6097488;23;20322;-24
2021/01/30 09:09:08;;;;;;;1.67;0.75;;;21.10;99.90;;;;;;6097017;23;20011;-25
2021/01/30 09:11:48;;;;;;;1.50;0.68;;;21.10;99.90;;;;;;6076509;23;20045;-24
2021/01/30 09:14:14;;;;;;;1.58;0.80;;;21.10;99.90;;;;;;6097531;23;19994;-24
2021/01/30 09:16:50;;;;;;;1.52;0.82;;;21.00;99.90;;;;;;6097377;23;20414;-24
2021/01/30 09:19:54;;;;;;;3.53;1.00;;;21.10;99.90;;;;;;6096227;23;20010;-24
2021/01/30 09:22:22;;;;;;;2.58;0.70;;;21.20;99.90;;;;;;6095830;23;20006;-24
2021/01/30 09:25:16;;;;;;;1.88;0.40;;;21.20;99.90;;;;;;6096477;23;20014;-24
2021/01/30 09:28:15;;;;;;;0.55;0.32;;;21.30;99.90;;;;;;6096562;23;20011;-24
2021/01/30 09:30:52;;;;;;;4.57;0.65;;;21.40;99.90;;;;;;6084187;23;20010;-25
2021/01/30 09:33:28;;;;;;;1.48;0.65;;;21.40;99.90;;;;;;6097429;23;20052;-25
2021/01/30 09:36:22;;;;;;;2.10;0.95;;;21.50;99.90;;;;;;6096959;23;19999;-25
2021/01/30 09:38:51;;;;;;;4.55;0.98;;;21.50;99.90;;;;;;6097488;23;20303;-25
2021/01/30 09:41:26;;;;;;;3.10;0.93;;;21.60;99.90;;;;;;6096379;23;20307;-25
2021/01/30 09:44:25;;;;;;;1.17;0.60;;;21.60;99.90;;;;;;6102085;23;20015;-30
2021/01/30 09:46:57;;;;;;;6.53;5.72;;;21.70;99.90;;;;;;6079765;23;20030;-30
2021/01/30 09:49:30;;;;;;;4.63;3.95;;;21.70;99.90;;;;;;6096761;23;20052;-30
2021/01/30 09:51:59;;;;;;;3.70;2.60;;;21.60;99.90;;;;;;6096772;23;19999;-29
2021/01/30 09:54:27;;;;;;;4.07;1.50;;;21.70;99.90;;;;;;6095019;23;20785;-30
2021/01/30 09:57:07;;;;;;;0.70;0.60;;;21.70;99.90;;;;;;6096698;23;19998;-30
2021/01/30 09:59:33;;;;;;;4.95;1.70;;;21.70;99.90;;;;;;6094908;23;20003;-30
2021/01/30 10:02:22;;;;;;;0.82;0.60;;;21.80;99.90;;;;;;6095169;23;20006;-30
2021/01/30 10:04:48;;;;;;;2.08;0.60;;;21.80;99.90;;;;;;6096737;23;20082;-30
2021/01/30 10:07:26;;;;;;;7.20;0.90;;;21.90;99.90;;;;;;6096052;23;20026;-29
2021/01/30 10:09:52;;;;;;;4.50;1.17;;;21.90;99.90;;;;;;6096741;23;20345;-29
2021/01/30 10:12:21;;;;;;;1.40;0.45;;;21.90;99.90;;;;;;6096058;23;20101;-30
2021/01/30 10:14:51;;;;;;;1.58;1.33;;;21.90;99.90;;;;;;6070868;23;20110;-30
2021/01/30 10:17:29;;;;;;;10.40;8.32;;;21.90;99.90;;;;;;6096847;23;20030;-29
2021/01/30 10:20:12;;;;;;;3.58;2.58;;;22.00;99.90;;;;;;6096573;23;20007;-29
2021/01/30 10:22:39;;;;;;;5.57;3.22;;;22.00;99.90;;;;;;6095927;23;20063;-29
2021/01/30 10:25:12;;;;;;;8.32;6.38;;;22.00;99.90;;;;;;6096120;23;20030;-30
2021/01/30 10:27:38;;;;;;;56.30;50.33;;;22.10;99.90;;;;;;6095654;23;20006;-29
2021/01/30 10:30:10;;;;;;;36.92;33.22;;;22.10;99.90;;;;;;6096150;23;19998;-29
2021/01/30 10:32:47;;;;;;;35.80;32.03;;;22.10;99.90;;;;;;6095698;23;20002;-29
2021/01/30 10:35:22;;;;;;;23.35;20.55;;;22.20;99.90;;;;;;6095992;23;20002;-29
2021/01/30 10:37:53;;;;;;;17.88;14.75;;;22.20;99.90;;;;;;6095752;23;20003;-29
2021/01/30 10:40:33;;;;;;;14.02;12.48;;;22.20;99.90;;;;;;6096214;23;20002;-29
2021/01/30 10:43:01;;;;;;;11.23;8.43;;;22.30;99.90;;;;;;6095670;23;20013;-29
2021/01/30 10:45:30;;;;;;;8.05;7.20;;;22.30;99.90;;;;;;6095868;23;20037;-29
2021/01/30 10:48:14;;;;;;;8.15;6.60;;;22.30;99.90;;;;;;6096003;23;20006;-29
2021/01/30 10:50:43;;;;;;;8.98;6.72;;;22.20;99.90;;;;;;6096543;23;20014;-24
2021/01/30 10:53:34;;;;;;;6.63;5.93;;;22.30;99.90;;;;;;6096951;23;19998;-24
2021/01/30 10:56:20;;;;;;;6.78;5.32;;;22.30;99.90;;;;;;6096759;23;20006;-24
2021/01/30 10:58:48;;;;;;;5.60;5.07;;;22.30;99.90;;;;;;6096682;23;20034;-25
2021/01/30 11:01:16;;;;;;;6.35;3.50;;;22.30;99.90;;;;;;6096188;23;20326;-25
2021/01/30 11:03:54;;;;;;;3.70;3.10;;;22.40;99.90;;;;;;6071199;23;20021;-24
2021/01/30 11:06:50;;;;;;;12.60;9.50;;;22.40;99.90;;;;;;6071035;23;20093;-27
2021/01/30 11:09:21;;;;;;;9.93;8.95;;;22.30;99.90;;;;;;6083581;23;20406;-25
2021/01/30 11:12:02;;;;;;;11.68;9.70;;;22.40;99.90;;;;;;6095464;23;20018;-28
2021/01/30 11:14:31;;;;;;;11.00;9.85;;;22.40;99.90;;;;;;6095562;23;20286;-25
2021/01/30 11:16:59;;;;;;;9.40;8.50;;;22.50;99.90;;;;;;6096924;23;20006;-28
2021/01/30 11:19:34;;;;;;;14.75;13.35;;;22.50;99.90;;;;;;6095519;23;20010;-28
2021/01/30 11:22:18;;;;;;;28.92;25.52;;;22.50;99.90;;;;;;6095297;23;20029;-28
2021/01/30 11:24:46;;;;;;;38.25;32.72;;;22.50;99.90;;;;;;6096082;23;20009;-29
2021/01/30 11:27:33;;;;;;;7.13;5.22;;;22.60;99.90;;;;;;6095184;23;20010;-29
2021/01/30 11:30:21;;;;;;;5.07;3.72;;;22.70;99.90;;;;;;6095317;23;20002;-29
2021/01/30 11:32:53;;;;;;;13.65;9.23;;;22.90;99.90;;;;;;6095404;23;20002;-29
2021/01/30 11:35:34;;;;;;;8.75;4.50;;;22.90;99.90;;;;;;6095990;23;20136;-29
2021/01/30 11:38:16;;;;;;;8.80;6.97;;;23.00;99.90;;;;;;6095895;23;20026;-29
2021/01/30 11:40:41;;;;;;;6.88;4.80;;;23.10;99.90;;;;;;6095862;23;20760;-29
2021/01/30 11:43:08;;;;;;;15.82;13.57;;;23.20;99.90;;;;;;6095488;23;20009;-29
2021/01/30 11:45:34;;;;;;;56.27;48.33;;;23.30;99.90;;;;;;6096339;23;20014;-29
2021/01/30 11:48:00;;;;;;;55.35;46.58;;;23.40;99.90;;;;;;6095786;23;20307;-29
2021/01/30 11:50:26;;;;;;;36.58;31.20;;;23.50;99.90;;;;;;6095582;23;20098;-28
2021/01/30 11:52:52;;;;;;;38.75;30.55;;;23.60;99.90;;;;;;6096369;23;20002;-29
2021/01/30 11:55:19;;;;;;;24.60;20.83;;;23.60;99.90;;;;;;6096397;23;20002;-25
2021/01/30 11:57:44;;;;;;;15.33;13.10;;;23.70;99.90;;;;;;6095720;23;20033;-25
2021/01/30 12:00:12;;;;;;;13.48;10.98;;;23.70;99.90;;;;;;6096061;23;20229;-25
2021/01/30 12:02:43;;;;;;;22.73;13.80;;;23.80;99.90;;;;;;6096287;23;20024;-24
2021/01/30 12:05:12;;;;;;;32.17;16.98;;;23.70;99.90;;;;;;6095633;23;20069;-25
2021/01/30 12:07:37;;;;;;;11.13;6.80;;;23.70;99.90;;;;;;6096198;23;20006;-25
2021/01/30 12:10:05;;;;;;;36.80;16.20;;;23.80;99.90;;;;;;6095330;23;20002;-24
2021/01/30 12:12:31;;;;;;;19.05;8.82;;;23.90;99.90;;;;;;6095627;23;20019;-24
2021/01/30 12:14:57;;;;;;;13.88;8.07;;;24.10;99.90;;;;;;6096387;23;20034;-27
2021/01/30 12:17:40;;;;;;;18.13;10.40;;;24.20;99.90;;;;;;6071199;23;20329;-27
2021/01/30 12:20:13;;;;;;;17.08;9.75;;;24.20;99.90;;;;;;6095952;23;20002;-25
2021/01/30 12:22:39;;;;;;;20.38;8.95;;;24.30;99.90;;;;;;6096364;23;20373;-25
2021/01/30 12:25:07;;;;;;;13.10;7.10;;;24.40;99.90;;;;;;6095976;23;20077;-25
2021/01/30 12:27:33;;;;;;;9.73;5.10;;;24.50;99.90;;;;;;6095973;23;20005;-25
2021/01/30 12:29:59;;;;;;;12.83;6.30;;;24.50;99.90;;;;;;6095222;23;20003;-25
2021/01/30 12:32:25;;;;;;;13.05;5.97;;;24.60;99.90;;;;;;6095966;23;20006;-25
2021/01/30 12:34:51;;;;;;;11.15;5.65;;;24.70;99.90;;;;;;6095648;23;20015;-24
2021/01/30 12:37:17;;;;;;;11.05;5.22;;;24.80;99.90;;;;;;6096384;23;20464;-25
2021/01/30 12:39:43;;;;;;;11.75;4.75;;;24.90;99.90;;;;;;6096172;23;20002;-25
2021/01/30 12:42:09;;;;;;;12.50;4.97;;;25.00;99.90;;;;;;6096269;23;20002;-25
2021/01/30 12:44:35;;;;;;;9.93;3.95;;;25.00;99.90;;;;;;6096446;23;20338;-25
2021/01/30 12:47:01;;;;;;;7.47;3.88;;;25.00;99.90;;;;;;6096437;23;20009;-25
2021/01/30 12:49:27;;;;;;;4.97;2.70;;;25.10;99.90;;;;;;6095797;23;20033;-27
2021/01/30 12:51:53;;;;;;;5.20;2.83;;;25.20;99.90;;;;;;6096273;23;20003;-25
2021/01/30 12:54:20;;;;;;;5.47;2.80;;;25.20;99.90;;;;;;6096426;23;20038;-25
2021/01/30 12:56:46;;;;;;;9.05;2.40;;;25.30;99.90;;;;;;6097864;23;20007;-25
2021/01/30 12:59:13;;;;;;;13.02;7.25;;;25.30;99.90;;;;;;6097886;23;20002;-25
2021/01/30 13:01:39;;;;;;;12.07;8.70;;;25.30;99.90;;;;;;6097597;23;20077;-25
2021/01/30 13:04:05;;;;;;;13.18;9.45;;;25.30;99.90;;;;;;6097890;23;20040;-25
2021/01/30 13:06:32;;;;;;;14.13;8.35;;;25.20;99.90;;;;;;6097511;23;20003;-25
2021/01/30 13:08:58;;;;;;;16.83;7.28;;;25.00;99.90;;;;;;6097262;23;20073;-25
2021/01/30 13:11:24;;;;;;;11.23;7.30;;;25.00;99.90;;;;;;6097259;23;20129;-25
2021/01/30 13:13:50;;;;;;;9.80;6.38;;;25.00;99.90;;;;;;6097922;23;20018;-25
2021/01/30 13:16:16;;;;;;;10.82;6.47;;;24.90;99.90;;;;;;6097043;23;20003;-25
2021/01/30 13:18:42;;;;;;;10.98;6.78;;;24.80;99.90;;;;;;6097711;23;19998;-26